Time;durP1;ratioP1;P1;durP2;ratioP2;P2;SDS_P1;SDS_P2;PMS_P1;PMS_P2;Temp;Humidity;BMP_temperature;BMP_pressure;BME280_temperature;BME280_humidity;BME280_pressure;Samples;Min_cycle;Max_cycle;Signal;HPM_P1;HPM_P2
2022/12/31 00:00:59;;;;;;;1.33;1.33;;;;;;;;;;5031231;28;20234;-80
2022/12/31 00:03:26;;;;;;;1.20;1.20;;;;;;;;;;5031622;28;20225;-81
2022/12/31 00:05:53;;;;;;;1.50;1.40;;;;;;;;;;5031152;28;20231;-81
2022/12/31 00:08:20;;;;;;;1.63;1.53;;;;;;;;;;5033767;28;20234;-81
2022/12/31 00:10:47;;;;;;;1.40;1.40;;;;;;;;;;5034833;28;20242;-81
2022/12/31 00:13:16;;;;;;;3.13;1.60;;;;;;;;;;5035185;28;20211;-81
2022/12/31 00:15:43;;;;;;;1.43;1.30;;;;;;;;;;5031757;28;20247;-81
2022/12/31 00:18:11;;;;;;;1.50;1.40;;;;;;;;;;5034521;28;20705;-80
2022/12/31 00:20:39;;;;;;;1.60;1.50;;;;;;;;;;5034675;28;20288;-81
2022/12/31 00:23:06;;;;;;;1.60;1.50;;;;;;;;;;5035061;28;20297;-81
2022/12/31 00:25:34;;;;;;;1.30;1.30;;;;;;;;;;5034466;28;20776;-81
2022/12/31 00:28:01;;;;;;;1.57;1.47;;;;;;;;;;5034634;28;20233;-81
2022/12/31 00:30:30;;;;;;;1.50;1.40;;;;;;;;;;5034013;28;20321;-81
2022/12/31 00:32:57;;;;;;;1.87;1.77;;;;;;;;;;5034529;28;20288;-81
2022/12/31 00:35:24;;;;;;;1.50;1.40;;;;;;;;;;5034103;28;20234;-81
2022/12/31 00:37:52;;;;;;;1.40;1.30;;;;;;;;;;5034668;28;20256;-81
2022/12/31 00:40:19;;;;;;;1.73;1.63;;;;;;;;;;5033859;28;20284;-81
2022/12/31 00:42:46;;;;;;;1.70;1.60;;;;;;;;;;5034728;28;20207;-81
2022/12/31 00:45:13;;;;;;;1.83;1.73;;;;;;;;;;5033935;28;20217;-81
2022/12/31 00:47:41;;;;;;;1.37;1.33;;;;;;;;;;5034349;28;20230;-81
2022/12/31 00:50:09;;;;;;;1.50;1.40;;;;;;;;;;5034265;28;20222;-80
2022/12/31 00:52:36;;;;;;;1.50;1.50;;;;;;;;;;5034476;28;20257;-81
2022/12/31 00:55:03;;;;;;;1.13;1.13;;;;;;;;;;5033779;28;20210;-81
2022/12/31 00:57:30;;;;;;;1.40;1.30;;;;;;;;;;5034272;28;20199;-81
2022/12/31 00:59:57;;;;;;;1.33;1.33;;;;;;;;;;5034267;28;20207;-81
2022/12/31 01:02:24;;;;;;;1.53;1.43;;;;;;;;;;5033757;28;20238;-81
2022/12/31 01:04:52;;;;;;;1.13;1.13;;;;;;;;;;5034493;28;20260;-81
2022/12/31 01:07:19;;;;;;;1.23;1.23;;;;;;;;;;5033643;28;20234;-81
2022/12/31 01:09:46;;;;;;;1.93;1.30;;;;;;;;;;5034101;28;20207;-81
2022/12/31 01:12:13;;;;;;;1.40;1.30;;;;;;;;;;5033743;28;20648;-81
2022/12/31 01:14:40;;;;;;;1.80;1.30;;;;;;;;;;5034062;28;20214;-81
2022/12/31 01:17:07;;;;;;;2.80;1.30;;;;;;;;;;5033521;28;20242;-81
2022/12/31 01:19:34;;;;;;;7.23;1.43;;;;;;;;;;5033262;28;20302;-81
2022/12/31 01:22:03;;;;;;;1.37;1.37;;;;;;;;;;5033171;28;20718;-81
2022/12/31 01:24:30;;;;;;;0.90;0.90;;;;;;;;;;5033519;28;20206;-81
2022/12/31 01:26:57;;;;;;;1.20;1.20;;;;;;;;;;5033415;28;20230;-81
2022/12/31 01:29:24;;;;;;;1.63;1.40;;;;;;;;;;5033169;28;20305;-81
2022/12/31 01:31:51;;;;;;;1.03;1.03;;;;;;;;;;5033477;28;20329;-81
2022/12/31 01:34:18;;;;;;;1.30;1.30;;;;;;;;;;5032927;28;20206;-81
2022/12/31 01:36:45;;;;;;;1.10;1.10;;;;;;;;;;5013429;28;20235;-81
2022/12/31 01:39:14;;;;;;;1.30;1.30;;;;;;;;;;5013600;28;20203;-80
2022/12/31 01:41:42;;;;;;;1.20;1.20;;;;;;;;;;5031306;28;20718;-80
2022/12/31 01:44:27;;;;;;;1.60;1.50;;;;;;;;;;5032872;28;20211;-80
2022/12/31 01:46:57;;;;;;;1.60;1.50;;;;;;;;;;5032844;28;20234;-80
2022/12/31 01:49:25;;;;;;;3.03;1.83;;;;;;;;;;5033194;28;20223;-81
2022/12/31 01:51:54;;;;;;;1.10;1.10;;;;;;;;;;5032861;28;20234;-81
2022/12/31 01:54:24;;;;;;;1.57;1.50;;;;;;;;;;5033517;28;20280;-80
2022/12/31 01:56:52;;;;;;;1.70;1.60;;;;;;;;;;5032916;28;20292;-80
2022/12/31 01:59:20;;;;;;;3.10;1.93;;;;;;;;;;5033320;28;20210;-81
2022/12/31 02:01:52;;;;;;;1.50;1.40;;;;;;;;;;5032896;28;20594;-81
2022/12/31 02:04:19;;;;;;;1.37;1.30;;;;;;;;;;5033349;28;20286;-81
2022/12/31 02:06:48;;;;;;;1.57;1.47;;;;;;;;;;5030784;28;20230;-81
2022/12/31 02:09:16;;;;;;;1.20;1.20;;;;;;;;;;5030016;28;20646;-80
2022/12/31 02:11:44;;;;;;;2.97;1.40;;;;;;;;;;5012622;28;20246;-81
2022/12/31 02:14:13;;;;;;;1.40;1.30;;;;;;;;;;5013242;28;20203;-81
2022/12/31 02:16:44;;;;;;;2.43;1.30;;;;;;;;;;5012846;28;20246;-81
2022/12/31 02:19:29;;;;;;;1.57;1.30;;;;;;;;;;5012974;28;20203;-81
2022/12/31 02:22:00;;;;;;;1.50;1.40;;;;;;;;;;5012638;28;20308;-80
2022/12/31 02:24:33;;;;;;;1.10;1.10;;;;;;;;;;5031225;28;20211;-81
2022/12/31 02:27:04;;;;;;;1.50;1.40;;;;;;;;;;5032181;28;20235;-81
2022/12/31 02:29:58;;;;;;;0.97;0.97;;;;;;;;;;5032501;28;20237;-81
2022/12/31 02:32:30;;;;;;;1.90;1.20;;;;;;;;;;5030952;28;20239;-80
2022/12/31 02:35:00;;;;;;;1.40;1.30;;;;;;;;;;5032282;28;20207;-80
2022/12/31 02:37:28;;;;;;;1.83;1.70;;;;;;;;;;5032031;28;20230;-81
2022/12/31 02:39:56;;;;;;;1.50;1.33;;;;;;;;;;5032382;28;20269;-81
2022/12/31 02:42:23;;;;;;;1.57;1.47;;;;;;;;;;5031859;28;20292;-80
2022/12/31 02:44:50;;;;;;;1.50;1.40;;;;;;;;;;5032321;28;20605;-80
2022/12/31 02:47:25;;;;;;;1.43;1.33;;;;;;;;;;5031842;28;20238;-80
2022/12/31 02:49:59;;;;;;;1.20;1.13;;;;;;;;;;5032117;28;20260;-81
2022/12/31 02:52:29;;;;;;;1.57;1.40;;;;;;;;;;5031920;28;20234;-80
2022/12/31 02:54:59;;;;;;;1.20;1.20;;;;;;;;;;5032149;28;20202;-81
2022/12/31 02:57:30;;;;;;;1.27;1.27;;;;;;;;;;5031669;28;20239;-81
2022/12/31 03:02:44;;;;;;;1.50;1.40;;;;;;;;;;5031892;28;20241;-81
2022/12/31 03:05:13;;;;;;;1.00;1.00;;;;;;;;;;5031662;28;20242;-81
2022/12/31 03:07:41;;;;;;;1.53;1.43;;;;;;;;;;5031906;28;20218;-81
2022/12/31 03:10:09;;;;;;;1.33;1.23;;;;;;;;;;5031377;28;20241;-81
2022/12/31 03:15:19;;;;;;;1.30;1.20;;;;;;;;;;5028779;28;20736;-81
2022/12/31 03:17:48;;;;;;;2.20;1.50;;;;;;;;;;5031770;28;20605;-81
2022/12/31 03:23:01;;;;;;;1.50;1.40;;;;;;;;;;5031823;28;20265;-81
2022/12/31 03:25:34;;;;;;;1.77;1.40;;;;;;;;;;5031444;28;20660;-81
2022/12/31 03:28:01;;;;;;;3.27;1.50;;;;;;;;;;5030933;28;20801;-81
2022/12/31 03:30:29;;;;;;;1.50;1.40;;;;;;;;;;5030876;28;20246;-81
2022/12/31 03:32:56;;;;;;;1.43;1.20;;;;;;;;;;5031841;28;20210;-81
2022/12/31 03:35:26;;;;;;;2.33;1.57;;;;;;;;;;5031098;28;20234;-81
2022/12/31 03:37:53;;;;;;;2.10;1.30;;;;;;;;;;5031616;28;20207;-81
2022/12/31 03:42:48;;;;;;;1.20;1.20;;;;;;;;;;5032196;28;20298;-81
2022/12/31 03:45:16;;;;;;;1.60;1.30;;;;;;;;;;5035822;28;20207;-81
2022/12/31 03:47:43;;;;;;;2.20;1.50;;;;;;;;;;5035457;28;20260;-81
2022/12/31 03:50:11;;;;;;;1.13;1.13;;;;;;;;;;5035071;28;20214;-81
2022/12/31 03:52:39;;;;;;;2.93;1.30;;;;;;;;;;5035387;28;20217;-80
2022/12/31 03:55:07;;;;;;;1.27;1.13;;;;;;;;;;5035079;28;20207;-80
2022/12/31 03:57:34;;;;;;;2.30;1.13;;;;;;;;;;5035566;28;20214;-81
2022/12/31 04:00:02;;;;;;;0.90;0.90;;;;;;;;;;5035697;28;20202;-80
2022/12/31 04:02:29;;;;;;;1.40;1.30;;;;;;;;;;5035603;28;20226;-81
2022/12/31 04:04:56;;;;;;;1.30;1.20;;;;;;;;;;5035495;28;20206;-80
2022/12/31 04:07:23;;;;;;;2.13;1.47;;;;;;;;;;5034878;28;20234;-79
2022/12/31 04:09:51;;;;;;;1.87;1.23;;;;;;;;;;5035657;28;20241;-77
2022/12/31 04:12:18;;;;;;;1.23;1.23;;;;;;;;;;5034872;28;20242;-78
2022/12/31 04:14:45;;;;;;;1.20;1.20;;;;;;;;;;5035710;28;20214;-79
2022/12/31 04:17:12;;;;;;;1.63;1.53;;;;;;;;;;5034814;28;20285;-78
2022/12/31 04:19:39;;;;;;;3.23;2.27;;;;;;;;;;5035417;28;20210;-79
2022/12/31 04:22:06;;;;;;;5.23;1.53;;;;;;;;;;5035055;28;20609;-79
2022/12/31 04:24:33;;;;;;;2.93;1.50;;;;;;;;;;5035154;28;20587;-78
2022/12/31 04:27:02;;;;;;;1.37;1.30;;;;;;;;;;5034620;28;20237;-78
2022/12/31 04:29:29;;;;;;;1.57;1.47;;;;;;;;;;5035033;28;20234;-79
2022/12/31 04:31:56;;;;;;;1.30;1.20;;;;;;;;;;5034714;28;20234;-78
2022/12/31 04:34:23;;;;;;;1.50;1.40;;;;;;;;;;5035116;28;20233;-80
2022/12/31 04:36:50;;;;;;;1.47;1.30;;;;;;;;;;5034707;28;20241;-80
2022/12/31 04:39:17;;;;;;;2.00;1.40;;;;;;;;;;5034988;28;20203;-80
2022/12/31 04:41:44;;;;;;;1.40;1.30;;;;;;;;;;5036433;28;20330;-79
2022/12/31 04:44:12;;;;;;;1.50;1.40;;;;;;;;;;5035365;28;20206;-80
2022/12/31 04:46:40;;;;;;;1.00;1.00;;;;;;;;;;5034351;28;20245;-79
2022/12/31 04:49:07;;;;;;;1.47;1.17;;;;;;;;;;5035054;28;20230;-80
2022/12/31 04:51:34;;;;;;;2.27;1.40;;;;;;;;;;5034153;28;20245;-79
2022/12/31 04:54:01;;;;;;;1.53;1.20;;;;;;;;;;5033843;28;20210;-80
2022/12/31 04:56:29;;;;;;;1.73;1.60;;;;;;;;;;5034163;28;20238;-80
2022/12/31 04:58:56;;;;;;;1.00;1.00;;;;;;;;;;5034496;28;20631;-80
2022/12/31 05:01:24;;;;;;;1.43;1.23;;;;;;;;;;5033906;28;20250;-79
2022/12/31 05:03:51;;;;;;;1.30;1.20;;;;;;;;;;5014985;28;20207;-79
2022/12/31 05:06:20;;;;;;;1.43;1.33;;;;;;;;;;5014256;28;20234;-80
2022/12/31 05:08:47;;;;;;;1.10;1.10;;;;;;;;;;5014726;28;20234;-80
2022/12/31 05:11:14;;;;;;;1.40;1.30;;;;;;;;;;5025353;28;20234;-79
2022/12/31 05:13:41;;;;;;;1.23;1.23;;;;;;;;;;5034467;28;20202;-80
2022/12/31 05:16:08;;;;;;;2.43;1.20;;;;;;;;;;5033880;28;20238;-80
2022/12/31 05:18:37;;;;;;;2.77;1.37;;;;;;;;;;5034499;28;20260;-79
2022/12/31 05:21:04;;;;;;;1.00;0.90;;;;;;;;;;5033876;28;20239;-79
2022/12/31 05:23:31;;;;;;;1.80;1.30;;;;;;;;;;5034229;28;20195;-81
2022/12/31 05:25:59;;;;;;;1.10;1.10;;;;;;;;;;5033993;28;20234;-79
2022/12/31 05:28:26;;;;;;;0.90;0.90;;;;;;;;;;5034010;28;20321;-80
2022/12/31 05:30:53;;;;;;;3.30;1.20;;;;;;;;;;5033625;28;20294;-81
2022/12/31 05:33:21;;;;;;;1.60;1.00;;;;;;;;;;5034261;28;20206;-79
2022/12/31 05:35:50;;;;;;;1.00;1.00;;;;;;;;;;5033787;28;20261;-79
2022/12/31 05:38:17;;;;;;;1.10;1.10;;;;;;;;;;5034009;28;20233;-79
2022/12/31 05:40:44;;;;;;;1.10;1.10;;;;;;;;;;5033162;28;20234;-79
2022/12/31 05:43:11;;;;;;;2.93;1.07;;;;;;;;;;5034079;28;20213;-79
2022/12/31 05:45:38;;;;;;;1.67;1.17;;;;;;;;;;5033152;28;20241;-79
2022/12/31 05:48:06;;;;;;;1.30;1.20;;;;;;;;;;5033513;28;20210;-80
2022/12/31 05:50:33;;;;;;;1.13;1.03;;;;;;;;;;5032870;28;20246;-79
2022/12/31 05:53:01;;;;;;;1.40;1.30;;;;;;;;;;5033457;28;20199;-80
2022/12/31 05:55:28;;;;;;;1.43;1.33;;;;;;;;;;5033127;28;20701;-79
2022/12/31 05:57:55;;;;;;;1.30;1.10;;;;;;;;;;5032911;28;20211;-79
2022/12/31 06:00:22;;;;;;;2.80;1.57;;;;;;;;;;5032893;28;20308;-80
2022/12/31 06:02:49;;;;;;;3.03;1.53;;;;;;;;;;5033465;28;20214;-79
2022/12/31 06:05:17;;;;;;;1.20;1.10;;;;;;;;;;5032513;28;20679;-79
2022/12/31 06:07:44;;;;;;;0.97;0.97;;;;;;;;;;5032929;28;20570;-80
2022/12/31 06:10:12;;;;;;;1.10;1.00;;;;;;;;;;5032517;28;20230;-79
2022/12/31 06:12:39;;;;;;;1.47;1.10;;;;;;;;;;5032967;28;20702;-80
2022/12/31 06:15:07;;;;;;;1.07;1.07;;;;;;;;;;5032645;28;20206;-79
2022/12/31 06:17:34;;;;;;;0.80;0.80;;;;;;;;;;5032883;28;20586;-79
2022/12/31 06:20:01;;;;;;;1.20;1.10;;;;;;;;;;5032934;28;20203;-79
2022/12/31 06:22:28;;;;;;;2.70;1.10;;;;;;;;;;5032402;28;20226;-79
2022/12/31 06:24:55;;;;;;;1.30;1.20;;;;;;;;;;5032644;28;20240;-79
2022/12/31 06:27:23;;;;;;;1.00;1.00;;;;;;;;;;5031744;28;20234;-80
2022/12/31 06:29:50;;;;;;;1.30;1.20;;;;;;;;;;5032661;28;20227;-80
2022/12/31 06:32:17;;;;;;;0.90;0.90;;;;;;;;;;5032063;28;20265;-79
2022/12/31 06:34:44;;;;;;;2.47;1.10;;;;;;;;;;5032866;28;20221;-80
2022/12/31 06:37:11;;;;;;;1.20;1.10;;;;;;;;;;5032143;28;20231;-79
2022/12/31 06:39:38;;;;;;;1.10;1.00;;;;;;;;;;5032514;28;20207;-79
2022/12/31 06:42:06;;;;;;;1.00;1.00;;;;;;;;;;5031819;28;20238;-79
2022/12/31 06:44:34;;;;;;;2.63;1.37;;;;;;;;;;5032459;28;20609;-79
2022/12/31 06:47:01;;;;;;;1.63;1.53;;;;;;;;;;5031831;28;20234;-79
2022/12/31 06:49:28;;;;;;;1.10;1.00;;;;;;;;;;5032122;28;20230;-80
2022/12/31 06:51:55;;;;;;;1.17;0.80;;;;;;;;;;5031931;28;20242;-79
2022/12/31 06:54:22;;;;;;;1.40;1.30;;;;;;;;;;5032444;28;20211;-79
2022/12/31 06:56:49;;;;;;;1.60;1.10;;;;;;;;;;5031952;28;20238;-79
2022/12/31 06:59:27;;;;;;;1.87;1.00;;;;;;;;;;5032166;28;20206;-79
2022/12/31 07:02:12;;;;;;;1.30;1.17;;;;;;;;;;5031811;28;20825;-79
2022/12/31 07:04:54;;;;;;;1.10;1.10;;;;;;;;;;5032359;28;20218;-79
2022/12/31 07:07:26;;;;;;;1.20;1.10;;;;;;;;;;5022293;28;20234;-79
2022/12/31 07:09:58;;;;;;;1.90;1.80;;;;;;;;;;5031986;28;20322;-79
2022/12/31 07:12:31;;;;;;;1.47;1.37;;;;;;;;;;5031451;28;20235;-80
2022/12/31 07:15:02;;;;;;;1.57;1.30;;;;;;;;;;5031920;28;20207;-79
2022/12/31 07:17:32;;;;;;;1.97;1.33;;;;;;;;;;5030898;28;20234;-80
2022/12/31 07:20:01;;;;;;;1.43;1.10;;;;;;;;;;5031647;28;20552;-79
2022/12/31 07:22:30;;;;;;;1.43;1.33;;;;;;;;;;5031794;28;20234;-79
2022/12/31 07:24:57;;;;;;;0.83;0.83;;;;;;;;;;5031716;28;20678;-79
2022/12/31 07:27:34;;;;;;;2.17;1.40;;;;;;;;;;5031123;28;20234;-79
2022/12/31 07:30:03;;;;;;;1.27;1.17;;;;;;;;;;5031637;28;20229;-79
2022/12/31 07:32:37;;;;;;;1.70;1.47;;;;;;;;;;5031473;28;20733;-80
2022/12/31 07:35:06;;;;;;;3.97;1.67;;;;;;;;;;5031258;28;20655;-78
2022/12/31 07:37:39;;;;;;;1.27;1.13;;;;;;;;;;5031585;28;20206;-78
2022/12/31 07:40:11;;;;;;;1.37;1.27;;;;;;;;;;5031195;28;20248;-79
2022/12/31 07:42:41;;;;;;;3.13;1.40;;;;;;;;;;5031591;28;20226;-79
2022/12/31 07:45:13;;;;;;;1.40;1.30;;;;;;;;;;5031085;28;20692;-79
2022/12/31 07:47:40;;;;;;;1.40;1.10;;;;;;;;;;5031209;28;20264;-79
2022/12/31 07:50:14;;;;;;;1.10;1.10;;;;;;;;;;5030725;28;20223;-79
2022/12/31 07:52:43;;;;;;;0.97;0.97;;;;;;;;;;5031268;28;20242;-79
2022/12/31 07:55:10;;;;;;;1.60;1.50;;;;;;;;;;5030979;28;20210;-80
2022/12/31 07:57:41;;;;;;;1.30;1.20;;;;;;;;;;5031535;28;20297;-80
2022/12/31 08:00:09;;;;;;;2.47;1.43;;;;;;;;;;5031002;28;20203;-80
2022/12/31 08:02:53;;;;;;;2.80;1.50;;;;;;;;;;5031683;28;20219;-80
2022/12/31 08:05:23;;;;;;;1.37;1.20;;;;;;;;;;5011596;28;20242;-80
2022/12/31 08:07:58;;;;;;;1.70;1.57;;;;;;;;;;5011412;28;20210;-80
2022/12/31 08:10:29;;;;;;;2.10;1.70;;;;;;;;;;5012595;28;20263;-80
2022/12/31 08:13:00;;;;;;;1.67;1.57;;;;;;;;;;5031306;28;20206;-79
2022/12/31 08:15:28;;;;;;;1.60;1.40;;;;;;;;;;5031320;28;20241;-79
2022/12/31 08:17:56;;;;;;;1.97;1.30;;;;;;;;;;5031354;28;20215;-79
2022/12/31 08:20:23;;;;;;;2.10;1.50;;;;;;;;;;5030532;28;20249;-79
2022/12/31 08:23:16;;;;;;;2.23;1.60;;;;;;;;;;5031189;28;20261;-79
2022/12/31 08:25:53;;;;;;;1.70;1.60;;;;;;;;;;4995613;28;20223;-79
2022/12/31 08:28:24;;;;;;;2.13;1.40;;;;;;;;;;5032255;28;20198;-79
2022/12/31 08:30:55;;;;;;;1.37;1.20;;;;;;;;;;5034612;28;20238;-79
2022/12/31 08:33:26;;;;;;;2.13;1.60;;;;;;;;;;5035157;28;20191;-80
2022/12/31 08:36:03;;;;;;;1.90;1.50;;;;;;;;;;5034652;28;20238;-79
2022/12/31 08:38:33;;;;;;;1.47;1.37;;;;;;;;;;5034732;28;20561;-79
2022/12/31 08:41:06;;;;;;;1.67;1.50;;;;;;;;;;5014711;28;20231;-79
2022/12/31 08:43:40;;;;;;;1.97;1.40;;;;;;;;;;5014973;28;20624;-79
2022/12/31 08:46:11;;;;;;;3.53;1.80;;;;;;;;;;5014640;28;20239;-79
2022/12/31 08:48:40;;;;;;;1.50;1.40;;;;;;;;;;5023288;28;20191;-81
2022/12/31 08:51:10;;;;;;;1.50;1.40;;;;;;;;;;5034021;28;20246;-80
2022/12/31 08:53:37;;;;;;;1.20;1.20;;;;;;;;;;5034581;28;20556;-80
2022/12/31 08:56:08;;;;;;;1.47;1.37;;;;;;;;;;5034160;28;20241;-80
2022/12/31 08:58:40;;;;;;;2.77;1.60;;;;;;;;;;5034455;28;20195;-81
2022/12/31 09:01:08;;;;;;;1.80;1.60;;;;;;;;;;5025154;28;20247;-80
2022/12/31 09:03:50;;;;;;;2.10;1.43;;;;;;;;;;5014948;28;20208;-81
2022/12/31 09:06:19;;;;;;;1.50;1.40;;;;;;;;;;5022834;28;20230;-80
2022/12/31 09:08:51;;;;;;;2.80;1.50;;;;;;;;;;5033948;28;20214;-80
2022/12/31 09:11:23;;;;;;;1.47;1.37;;;;;;;;;;5033444;28;20292;-79
2022/12/31 09:14:05;;;;;;;1.17;1.10;;;;;;;;;;5034094;28;20203;-80
2022/12/31 09:16:35;;;;;;;2.37;1.50;;;;;;;;;;5033815;28;20234;-80
2022/12/31 09:19:02;;;;;;;2.23;1.43;;;;;;;;;;5033910;28;20214;-79
2022/12/31 09:21:31;;;;;;;1.50;1.40;;;;;;;;;;5033302;28;20737;-79
2022/12/31 09:23:58;;;;;;;1.20;1.20;;;;;;;;;;5033875;28;20838;-80
2022/12/31 09:26:35;;;;;;;1.43;1.30;;;;;;;;;;5018059;28;20239;-79
2022/12/31 09:29:04;;;;;;;2.17;1.30;;;;;;;;;;5014346;28;20195;-80
2022/12/31 09:31:35;;;;;;;2.53;1.93;;;;;;;;;;5013426;28;20243;-80
2022/12/31 09:34:05;;;;;;;1.90;1.50;;;;;;;;;;5013899;28;20709;-79
2022/12/31 09:36:37;;;;;;;2.20;1.37;;;;;;;;;;5013444;28;20650;-79
2022/12/31 09:39:07;;;;;;;1.80;1.70;;;;;;;;;;5013485;28;20269;-79
2022/12/31 09:41:52;;;;;;;2.20;1.60;;;;;;;;;;5012956;28;20239;-79
2022/12/31 09:44:34;;;;;;;1.93;1.60;;;;;;;;;;5007454;28;20200;-79
2022/12/31 09:47:20;;;;;;;2.10;1.87;;;;;;;;;;5028289;28;20620;-79
2022/12/31 09:50:12;;;;;;;2.37;1.67;;;;;;;;;;5033456;28;20213;-79
2022/12/31 09:52:44;;;;;;;1.40;1.30;;;;;;;;;;5033405;28;20586;-79
2022/12/31 09:55:20;;;;;;;1.63;1.50;;;;;;;;;;5028968;28;20203;-79
2022/12/31 09:57:54;;;;;;;1.60;1.50;;;;;;;;;;5037597;28;20201;-80
2022/12/31 10:00:24;;;;;;;2.73;1.40;;;;;;;;;;5032179;28;20674;-79
2022/12/31 10:03:03;;;;;;;1.77;1.50;;;;;;;;;;5033297;28;20241;-78
2022/12/31 10:05:39;;;;;;;1.93;1.40;;;;;;;;;;5032576;28;20230;-80
2022/12/31 10:08:13;;;;;;;2.00;1.23;;;;;;;;;;5012930;28;20191;-79
2022/12/31 10:10:46;;;;;;;4.00;1.57;;;;;;;;;;5020110;28;20764;-79
2022/12/31 10:13:29;;;;;;;1.67;1.57;;;;;;;;;;5032867;28;20187;-79
2022/12/31 10:16:10;;;;;;;1.30;1.20;;;;;;;;;;5032053;28;20238;-79
2022/12/31 10:18:44;;;;;;;3.53;1.53;;;;;;;;;;5032594;28;20195;-80
2022/12/31 10:21:18;;;;;;;1.30;1.10;;;;;;;;;;5032297;28;20250;-79
2022/12/31 10:23:57;;;;;;;2.60;1.40;;;;;;;;;;5032303;28;20214;-79
2022/12/31 10:26:28;;;;;;;1.70;1.50;;;;;;;;;;5032010;28;20241;-78
2022/12/31 10:28:56;;;;;;;1.13;1.10;;;;;;;;;;5032126;28;20603;-80
2022/12/31 10:31:37;;;;;;;1.70;1.23;;;;;;;;;;5031396;28;20625;-79
2022/12/31 10:34:13;;;;;;;1.83;1.50;;;;;;;;;;5030105;28;20200;-79
2022/12/31 10:36:47;;;;;;;1.50;1.40;;;;;;;;;;5031735;28;20234;-79
2022/12/31 10:39:22;;;;;;;2.37;1.30;;;;;;;;;;5031753;28;20213;-79
2022/12/31 10:42:05;;;;;;;1.27;1.20;;;;;;;;;;5031250;28;20238;-79
2022/12/31 10:44:43;;;;;;;1.50;1.17;;;;;;;;;;5032396;28;20573;-79
2022/12/31 10:47:38;;;;;;;1.50;1.40;;;;;;;;;;5031523;28;20237;-79
2022/12/31 10:50:26;;;;;;;2.17;1.47;;;;;;;;;;5007107;28;20202;-79
2022/12/31 10:53:06;;;;;;;1.30;1.20;;;;;;;;;;5014000;28;20690;-79
2022/12/31 10:55:44;;;;;;;2.03;1.53;;;;;;;;;;5031304;28;20284;-79
2022/12/31 10:58:29;;;;;;;3.03;1.20;;;;;;;;;;5031805;28;20191;-79
2022/12/31 11:01:02;;;;;;;1.70;1.30;;;;;;;;;;5031148;28;20241;-79
2022/12/31 11:03:47;;;;;;;3.40;1.30;;;;;;;;;;5032090;28;20194;-79
2022/12/31 11:06:34;;;;;;;2.63;1.20;;;;;;;;;;5020296;28;20254;-78
2022/12/31 11:09:11;;;;;;;2.80;1.30;;;;;;;;;;5026687;28;20198;-79
2022/12/31 11:11:44;;;;;;;2.33;1.57;;;;;;;;;;5030975;28;20234;-80
2022/12/31 11:14:34;;;;;;;3.37;1.80;;;;;;;;;;5031625;28;20187;-78
2022/12/31 11:17:11;;;;;;;1.50;1.40;;;;;;;;;;5031185;28;20230;-78
2022/12/31 11:19:44;;;;;;;4.03;1.70;;;;;;;;;;5031793;28;20248;-78
2022/12/31 11:22:26;;;;;;;2.70;1.70;;;;;;;;;;5031376;28;20706;-79
2022/12/31 11:25:14;;;;;;;2.60;1.63;;;;;;;;;;5031948;28;20278;-80
2022/12/31 11:27:49;;;;;;;1.23;1.13;;;;;;;;;;5031321;28;20226;-81
2022/12/31 11:30:21;;;;;;;4.07;1.77;;;;;;;;;;5030742;28;20210;-79
2022/12/31 11:32:55;;;;;;;2.67;1.40;;;;;;;;;;5031845;28;20195;-79
2022/12/31 11:35:23;;;;;;;2.00;1.40;;;;;;;;;;5031372;28;20198;-79
2022/12/31 11:37:51;;;;;;;1.63;1.53;;;;;;;;;;5031556;28;20210;-79
2022/12/31 11:40:32;;;;;;;2.83;1.50;;;;;;;;;;5031157;28;20214;-78
2022/12/31 11:43:01;;;;;;;4.97;1.73;;;;;;;;;;5031782;28;20195;-79
2022/12/31 11:45:38;;;;;;;1.67;1.30;;;;;;;;;;5030845;28;20579;-79
2022/12/31 11:48:13;;;;;;;1.80;1.60;;;;;;;;;;5030943;28;20202;-79
2022/12/31 11:50:44;;;;;;;1.57;1.30;;;;;;;;;;5031262;28;20324;-79
2022/12/31 11:53:25;;;;;;;1.63;1.50;;;;;;;;;;5031593;28;20203;-80
2022/12/31 11:55:59;;;;;;;3.30;1.50;;;;;;;;;;5030831;28;20237;-80
2022/12/31 11:58:27;;;;;;;1.50;1.30;;;;;;;;;;5030967;28;20297;-80
2022/12/31 12:00:56;;;;;;;1.48;1.38;;;;;;;;;;5030680;28;20226;-80
2022/12/31 12:03:23;;;;;;;1.57;1.30;;;;;;;;;;5032269;28;20207;-80
2022/12/31 12:05:51;;;;;;;2.40;1.13;;;;;;;;;;5034779;28;20234;-82
2022/12/31 12:08:18;;;;;;;1.87;1.40;;;;;;;;;;5034390;28;20249;-80
2022/12/31 12:10:46;;;;;;;1.57;1.40;;;;;;;;;;5034406;28;20234;-80
2022/12/31 12:13:20;;;;;;;1.87;1.73;;;;;;;;;;5040749;28;20202;-80
2022/12/31 12:15:48;;;;;;;3.90;1.73;;;;;;;;;;5054767;28;20318;-79
2022/12/31 12:18:23;;;;;;;1.67;1.53;;;;;;;;;;5054888;28;20293;-79
2022/12/31 12:20:50;;;;;;;2.13;1.57;;;;;;;;;;5054726;28;20226;-79
2022/12/31 12:23:22;;;;;;;2.73;1.43;;;;;;;;;;5054421;28;20217;-80
2022/12/31 12:25:50;;;;;;;3.60;1.90;;;;;;;;;;5014730;28;20235;-81
2022/12/31 12:28:20;;;;;;;2.10;1.60;;;;;;;;;;5014741;28;20222;-79
2022/12/31 12:30:53;;;;;;;4.40;1.80;;;;;;;;;;5014490;28;20235;-80
2022/12/31 12:33:21;;;;;;;1.70;1.60;;;;;;;;;;5015097;28;20278;-79
2022/12/31 12:35:48;;;;;;;2.00;1.30;;;;;;;;;;5018786;28;20636;-79
2022/12/31 12:38:16;;;;;;;1.10;1.10;;;;;;;;;;5034516;28;20206;-80
2022/12/31 12:40:52;;;;;;;1.67;1.45;;;;;;;;;;5033979;28;20682;-79
2022/12/31 12:43:23;;;;;;;1.87;1.47;;;;;;;;;;5034775;28;20191;-79
2022/12/31 12:45:51;;;;;;;2.10;1.10;;;;;;;;;;5034090;28;20237;-79
2022/12/31 12:48:19;;;;;;;1.90;1.43;;;;;;;;;;5033978;28;20667;-80
2022/12/31 12:50:48;;;;;;;2.63;1.23;;;;;;;;;;5033753;28;20238;-80
2022/12/31 12:53:20;;;;;;;2.40;1.30;;;;;;;;;;5034130;28;20207;-79
2022/12/31 12:55:52;;;;;;;1.58;1.48;;;;;;;;;;5033701;28;20667;-79
2022/12/31 12:58:27;;;;;;;3.93;1.40;;;;;;;;;;5034080;28;20198;-79
2022/12/31 13:00:57;;;;;;;1.50;1.27;;;;;;;;;;5033659;28;20229;-80
2022/12/31 13:03:42;;;;;;;1.53;1.43;;;;;;;;;;5034353;28;20214;-79
2022/12/31 13:06:14;;;;;;;1.40;1.30;;;;;;;;;;5033671;28;20244;-79
2022/12/31 13:08:53;;;;;;;3.25;1.33;;;;;;;;;;5034112;28;20195;-79
2022/12/31 13:11:25;;;;;;;1.00;0.90;;;;;;;;;;5033396;28;20238;-79
2022/12/31 13:13:58;;;;;;;1.75;1.20;;;;;;;;;;5034277;28;20234;-79
2022/12/31 13:16:29;;;;;;;1.30;1.20;;;;;;;;;;5032728;28;20238;-83
2022/12/31 13:19:00;;;;;;;2.63;1.40;;;;;;;;;;5033448;28;20556;-81
2022/12/31 13:21:32;;;;;;;1.43;1.33;;;;;;;;;;5033213;28;20245;-81
2022/12/31 13:24:02;;;;;;;3.30;1.30;;;;;;;;;;5033759;28;20364;-81
2022/12/31 13:26:33;;;;;;;1.93;1.10;;;;;;;;;;5032789;28;20244;-81
2022/12/31 13:29:02;;;;;;;1.30;1.20;;;;;;;;;;5033180;28;20268;-81
2022/12/31 13:31:31;;;;;;;2.03;1.30;;;;;;;;;;5032946;28;20241;-81
2022/12/31 13:34:01;;;;;;;1.83;1.47;;;;;;;;;;5033494;28;20202;-81
2022/12/31 13:36:31;;;;;;;1.92;1.40;;;;;;;;;;5032849;28;20239;-81
2022/12/31 13:39:00;;;;;;;1.50;1.33;;;;;;;;;;5033556;28;20249;-82
2022/12/31 13:41:28;;;;;;;1.50;1.33;;;;;;;;;;5035113;28;20238;-82
2022/12/31 13:43:59;;;;;;;2.00;1.30;;;;;;;;;;5051992;28;20210;-82
2022/12/31 13:46:38;;;;;;;2.37;1.53;;;;;;;;;;5032653;28;20279;-81
2022/12/31 13:49:06;;;;;;;1.13;1.13;;;;;;;;;;5033024;28;20191;-81
2022/12/31 13:51:41;;;;;;;1.73;1.63;;;;;;;;;;5032548;28;20231;-81
2022/12/31 13:54:14;;;;;;;2.17;1.88;;;;;;;;;;5033316;28;20240;-81
2022/12/31 13:56:42;;;;;;;1.60;1.50;;;;;;;;;;5032531;28;20642;-81
2022/12/31 13:59:15;;;;;;;1.13;1.03;;;;;;;;;;5033265;28;20208;-81
2022/12/31 14:01:47;;;;;;;1.55;1.30;;;;;;;;;;5032465;28;20718;-82
2022/12/31 14:04:17;;;;;;;1.80;1.40;;;;;;;;;;5024255;28;20698;-82
2022/12/31 14:06:46;;;;;;;0.90;0.90;;;;;;;;;;5012353;28;20239;-83
2022/12/31 14:09:15;;;;;;;1.93;1.40;;;;;;;;;;5016415;28;20199;-82
2022/12/31 14:11:51;;;;;;;2.70;1.50;;;;;;;;;;5031919;28;20258;-82
2022/12/31 14:14:25;;;;;;;1.10;1.10;;;;;;;;;;5032564;28;20537;-82
2022/12/31 14:16:56;;;;;;;1.27;1.20;;;;;;;;;;5028164;28;20231;-82
2022/12/31 14:19:26;;;;;;;1.60;1.20;;;;;;;;;;5024857;28;20205;-81
2022/12/31 14:21:55;;;;;;;1.38;1.27;;;;;;;;;;5031933;28;20609;-81
2022/12/31 14:24:28;;;;;;;1.30;1.20;;;;;;;;;;5032696;28;20207;-81
2022/12/31 14:26:57;;;;;;;1.57;1.00;;;;;;;;;;5032032;28;20737;-79
2022/12/31 14:29:30;;;;;;;1.75;1.20;;;;;;;;;;5032363;28;20210;-80
2022/12/31 14:32:13;;;;;;;1.47;1.30;;;;;;;;;;5031996;28;20241;-79
2022/12/31 14:34:47;;;;;;;2.10;1.20;;;;;;;;;;5032519;28;20241;-80
2022/12/31 14:37:17;;;;;;;1.13;1.13;;;;;;;;;;5031957;28;20710;-81
2022/12/31 14:39:48;;;;;;;3.05;1.30;;;;;;;;;;5032394;28;20207;-80
2022/12/31 14:42:19;;;;;;;1.75;1.20;;;;;;;;;;5031495;28;20238;-81
2022/12/31 14:44:53;;;;;;;1.00;1.00;;;;;;;;;;5026432;28;20611;-81
2022/12/31 14:47:27;;;;;;;1.53;1.13;;;;;;;;;;5027392;28;20586;-81
2022/12/31 14:50:00;;;;;;;1.00;1.00;;;;;;;;;;5019281;28;20193;-81
2022/12/31 14:52:31;;;;;;;0.90;0.80;;;;;;;;;;5011259;28;20581;-80
2022/12/31 14:54:59;;;;;;;1.23;1.15;;;;;;;;;;5016452;28;20547;-80
2022/12/31 14:57:27;;;;;;;1.50;1.40;;;;;;;;;;5013675;28;20257;-81
2022/12/31 14:59:56;;;;;;;1.70;1.60;;;;;;;;;;5011906;28;20214;-81
2022/12/31 15:02:29;;;;;;;1.80;1.40;;;;;;;;;;5011754;28;20243;-80
2022/12/31 15:05:05;;;;;;;1.80;1.70;;;;;;;;;;5012113;28;20215;-80
2022/12/31 15:07:37;;;;;;;3.63;2.70;;;;;;;;;;5011800;28;20306;-81
2022/12/31 15:10:10;;;;;;;1.57;1.47;;;;;;;;;;5018173;28;20198;-79
2022/12/31 15:12:47;;;;;;;2.10;1.90;;;;;;;;;;5031498;28;20222;-79
2022/12/31 15:15:23;;;;;;;2.60;1.90;;;;;;;;;;5031543;28;20253;-79